createdAt,value
2022-10-11T00:00:57.489Z,993.9
2022-10-11T00:02:03.742Z,993.9
2022-10-11T00:03:10.070Z,994
2022-10-11T00:04:16.387Z,994
2022-10-11T00:05:22.716Z,994
2022-10-11T00:06:29.060Z,994
2022-10-11T00:07:35.386Z,994.1
2022-10-11T00:08:41.716Z,994.1
2022-10-11T00:09:48.043Z,994.1
2022-10-11T00:10:54.375Z,994.1
2022-10-11T00:12:00.709Z,994.1
2022-10-11T00:13:16.306Z,994.2
2022-10-11T00:14:22.615Z,994.2
2022-10-11T00:15:28.972Z,994.2
2022-10-11T00:16:35.330Z,994.2
2022-10-11T00:17:41.642Z,994.2
2022-10-11T00:18:47.970Z,994.2
2022-10-11T00:19:54.294Z,994.2
2022-10-11T00:21:00.631Z,994.3
2022-10-11T00:22:06.952Z,994.3
2022-10-11T00:23:13.283Z,994.3
2022-10-11T00:24:19.617Z,994.3
2022-10-11T00:25:25.954Z,994.3
2022-10-11T00:26:32.280Z,994.4
2022-10-11T00:27:38.625Z,994.4
2022-10-11T00:28:45.300Z,994.4
2022-10-11T00:29:51.567Z,994.4
2022-10-11T00:30:57.895Z,994.4
2022-10-11T00:32:04.253Z,994.4
2022-10-11T00:33:10.552Z,994.4
2022-10-11T00:34:16.909Z,994.4
2022-10-11T00:35:23.380Z,994.4
2022-10-11T00:36:29.641Z,994.4
2022-10-11T00:37:35.964Z,994.4
2022-10-11T00:38:42.307Z,994.4
2022-10-11T00:39:48.647Z,994.4
2022-10-11T00:40:54.985Z,994.4
2022-10-11T00:42:01.279Z,994.4
2022-10-11T00:43:07.647Z,994.4
2022-10-11T00:44:13.963Z,994.4
2022-10-11T00:45:20.294Z,994.4
2022-10-11T00:46:26.618Z,994.5
2022-10-11T00:47:32.989Z,994.5
2022-10-11T00:48:39.305Z,994.5
2022-10-11T00:49:45.658Z,994.5
2022-10-11T00:50:51.969Z,994.5
2022-10-11T00:51:58.294Z,994.5
2022-10-11T00:53:04.642Z,994.6
2022-10-11T00:54:10.962Z,994.6
2022-10-11T00:55:17.289Z,994.6
2022-10-11T00:56:23.623Z,994.6
2022-10-11T00:57:29.954Z,994.6
2022-10-11T00:58:36.289Z,994.6
2022-10-11T00:59:42.613Z,994.6
2022-10-11T01:00:49.446Z,994.6
2022-10-11T01:01:55.755Z,994.6
2022-10-11T01:03:02.123Z,994.6
2022-10-11T01:04:08.424Z,994.6
2022-10-11T01:06:21.098Z,994.6
2022-10-11T01:07:27.436Z,994.6
2022-10-11T01:08:33.762Z,994.6
2022-10-11T01:09:40.076Z,994.6
2022-10-11T01:10:46.419Z,994.6
2022-10-11T01:11:52.765Z,994.7
2022-10-11T01:12:59.080Z,994.7
2022-10-11T01:14:05.414Z,994.7
2022-10-11T01:15:11.758Z,994.7
2022-10-11T01:16:18.073Z,994.7
2022-10-11T01:17:24.416Z,994.7
2022-10-11T01:18:30.767Z,994.7
2022-10-11T01:19:37.074Z,994.7
2022-10-11T01:20:43.428Z,994.7
2022-10-11T01:24:06.074Z,994.7
2022-10-11T01:25:17.994Z,994.8
2022-10-11T01:26:33.570Z,994.8
2022-10-11T01:27:49.168Z,994.7
2022-10-11T01:29:04.736Z,994.8
2022-10-11T01:30:20.674Z,994.8
2022-10-11T01:31:36.264Z,994.8
2022-10-11T01:32:51.842Z,994.8
2022-10-11T01:33:58.191Z,994.8
2022-10-11T01:35:04.536Z,994.8
2022-10-11T01:36:10.904Z,994.8
2022-10-11T01:37:17.176Z,994.9
2022-10-11T01:38:23.498Z,994.8
2022-10-11T01:39:30.113Z,994.9
2022-10-11T01:40:36.467Z,994.9
2022-10-11T01:41:42.781Z,994.9
2022-10-11T01:42:49.129Z,994.9
2022-10-11T01:43:55.444Z,994.9
2022-10-11T01:45:01.805Z,994.9
2022-10-11T01:46:08.522Z,994.9
2022-10-11T01:47:14.534Z,994.9
2022-10-11T01:48:20.864Z,994.9
2022-10-11T01:49:27.225Z,994.9
2022-10-11T01:50:33.522Z,994.9
2022-10-11T01:51:41.999Z,994.9
2022-10-11T01:52:46.201Z,994.9
2022-10-11T01:53:52.530Z,994.9
2022-10-11T01:55:14.327Z,994.9
2022-10-11T01:56:05.503Z,994.9
2022-10-11T01:57:11.503Z,994.9
2022-10-11T01:58:17.857Z,994.9
2022-10-11T01:59:24.179Z,995
2022-10-11T02:00:30.511Z,995
2022-10-11T02:01:36.871Z,995
2022-10-11T02:02:43.182Z,995
2022-10-11T02:03:49.511Z,995
2022-10-11T02:04:55.843Z,995
2022-10-11T02:06:02.571Z,995
2022-10-11T02:08:14.853Z,995
2022-10-11T02:09:21.152Z,995.1
2022-10-11T02:10:27.500Z,995.1
2022-10-11T02:11:34.313Z,995.1
2022-10-11T02:12:40.633Z,995.1
2022-10-11T02:13:46.998Z,995.1
2022-10-11T02:14:53.309Z,995.1
2022-10-11T02:15:59.630Z,995.1
2022-10-11T02:18:12.333Z,995.1
2022-10-11T02:19:18.642Z,995.1
2022-10-11T02:20:25.275Z,995.1
2022-10-11T02:21:31.284Z,995.1
2022-10-11T02:23:43.973Z,995.1
2022-10-11T02:24:59.539Z,995.1
2022-10-11T02:26:15.134Z,995.2
2022-10-11T02:27:30.727Z,995.2
2022-10-11T02:28:46.411Z,995.2
2022-10-11T02:30:01.909Z,995.2
2022-10-11T02:31:17.497Z,995.2
2022-10-11T02:32:33.062Z,995.2
2022-10-11T02:33:39.400Z,995.2
2022-10-11T02:34:45.730Z,995.2
2022-10-11T02:35:52.159Z,995.2
2022-10-11T02:36:58.399Z,995.2
2022-10-11T02:38:04.741Z,995.2
2022-10-11T02:39:11.061Z,995.2
2022-10-11T02:40:17.412Z,995.2
2022-10-11T02:41:23.730Z,995.2
2022-10-11T02:42:30.051Z,995.2
2022-10-11T02:43:36.389Z,995.2
2022-10-11T02:44:42.718Z,995.2
2022-10-11T02:45:49.054Z,995.2
2022-10-11T02:46:55.422Z,995.2
2022-10-11T02:48:01.728Z,995.2
2022-10-11T02:49:08.061Z,995.2
2022-10-11T02:50:14.395Z,995.2
2022-10-11T02:51:20.730Z,995.3
2022-10-11T02:52:27.062Z,995.3
2022-10-11T02:53:33.405Z,995.3
2022-10-11T02:54:39.725Z,995.3
2022-10-11T02:55:46.052Z,995.3
2022-10-11T02:57:58.718Z,995.4
2022-10-11T02:59:05.046Z,995.4
2022-10-11T03:00:11.384Z,995.4
2022-10-11T03:01:17.745Z,995.5
2022-10-11T03:02:24.034Z,995.5
2022-10-11T03:03:30.371Z,995.5
2022-10-11T03:04:36.705Z,995.5
2022-10-11T03:05:43.111Z,995.5
2022-10-11T03:06:49.422Z,995.6
2022-10-11T03:07:55.684Z,995.6
2022-10-11T03:09:02.034Z,995.6
2022-10-11T03:10:08.407Z,995.6
2022-10-11T03:12:21.031Z,995.6
2022-10-11T03:13:27.369Z,995.6
2022-10-11T03:14:33.720Z,995.7
2022-10-11T03:15:40.041Z,995.7
2022-10-11T03:16:46.356Z,995.7
2022-10-11T03:18:59.027Z,995.8
2022-10-11T03:20:14.606Z,995.8
2022-10-11T03:21:30.228Z,995.8
2022-10-11T03:22:45.808Z,995.8
2022-10-11T03:24:01.367Z,995.8
2022-10-11T03:25:16.967Z,995.9
2022-10-11T03:26:41.800Z,995.9
2022-10-11T03:27:48.143Z,995.9
2022-10-11T03:28:54.551Z,995.9
2022-10-11T03:30:00.835Z,995.9
2022-10-11T03:31:07.122Z,995.9
2022-10-11T03:32:13.469Z,995.9
2022-10-11T03:33:19.798Z,996
2022-10-11T03:34:26.179Z,996
2022-10-11T03:35:32.922Z,996
2022-10-11T03:36:39.248Z,996
2022-10-11T03:37:45.597Z,996
2022-10-11T03:38:51.954Z,996
2022-10-11T03:39:58.261Z,996
2022-10-11T03:42:11.021Z,996.1
2022-10-11T03:43:17.357Z,996.1
2022-10-11T03:44:23.665Z,996.1
2022-10-11T03:45:30.001Z,996.1
2022-10-11T03:46:36.325Z,996.2
2022-10-11T03:47:42.665Z,996.2
2022-10-11T03:48:48.996Z,996.2
2022-10-11T03:49:55.325Z,996.2
2022-10-11T03:51:10.938Z,996.2
2022-10-11T03:52:27.035Z,996.2
2022-10-11T03:54:39.726Z,996.3
2022-10-11T03:55:55.549Z,996.3
2022-10-11T03:57:11.157Z,996.3
2022-10-11T03:58:27.177Z,996.3
2022-10-11T03:59:42.757Z,996.3
2022-10-11T04:00:58.349Z,996.4
2022-10-11T04:02:23.173Z,996.4
2022-10-11T04:03:29.508Z,996.4
2022-10-11T04:04:35.887Z,996.4
2022-10-11T04:05:42.166Z,996.4
2022-10-11T04:06:48.505Z,996.4
2022-10-11T04:07:54.845Z,996.4
2022-10-11T04:09:01.182Z,996.5
2022-10-11T04:11:13.873Z,996.5
2022-10-11T04:12:20.172Z,996.5
2022-10-11T04:13:26.529Z,996.5
2022-10-11T04:14:32.827Z,996.5
2022-10-11T04:15:39.173Z,996.5
2022-10-11T04:16:45.502Z,996.5
2022-10-11T04:17:51.932Z,996.5
2022-10-11T04:20:04.498Z,996.6
2022-10-11T04:21:20.076Z,996.6
2022-10-11T04:22:35.673Z,996.6
2022-10-11T04:23:51.263Z,996.6
2022-10-11T04:25:06.955Z,996.6
2022-10-11T04:26:22.470Z,996.6
2022-10-11T04:27:47.275Z,996.7
2022-10-11T04:28:53.654Z,996.7
2022-10-11T04:29:59.939Z,996.7
2022-10-11T04:31:06.271Z,996.7
2022-10-11T04:32:12.702Z,996.7
2022-10-11T04:33:18.939Z,996.7
2022-10-11T04:34:25.276Z,996.8
2022-10-11T04:35:31.596Z,996.8
2022-10-11T04:36:37.962Z,996.8
2022-10-11T04:37:44.264Z,996.8
2022-10-11T04:38:50.591Z,996.8
2022-10-11T04:39:56.925Z,996.8
2022-10-11T04:41:03.262Z,996.8
2022-10-11T04:42:09.606Z,996.8
2022-10-11T04:43:15.929Z,996.8
2022-10-11T04:44:22.245Z,996.9
2022-10-11T04:45:28.609Z,996.9
2022-10-11T04:46:34.909Z,996.9
2022-10-11T04:47:41.249Z,996.9
2022-10-11T04:48:47.573Z,996.9
2022-10-11T04:49:53.917Z,997
2022-10-11T04:51:00.285Z,997
2022-10-11T04:52:06.575Z,997
2022-10-11T04:53:12.918Z,997
2022-10-11T04:54:19.225Z,997
2022-10-11T04:55:25.585Z,997
2022-10-11T04:56:31.893Z,997
2022-10-11T04:57:38.252Z,997
2022-10-11T04:58:44.578Z,997
2022-10-11T04:59:50.918Z,997.1
2022-10-11T05:00:57.272Z,997.1
2022-10-11T05:02:03.619Z,997.1
2022-10-11T05:03:09.891Z,997.1
2022-10-11T05:04:16.228Z,997.1
2022-10-11T05:05:22.552Z,997.1
2022-10-11T05:06:28.896Z,997.2
2022-10-11T05:07:35.233Z,997.2
2022-10-11T05:08:41.755Z,997.2
2022-10-11T05:09:48.097Z,997.2
2022-10-11T05:10:54.422Z,997.2
2022-10-11T05:12:00.778Z,997.2
2022-10-11T05:14:13.436Z,997.2
2022-10-11T05:15:19.756Z,997.2
2022-10-11T05:16:26.081Z,997.3
2022-10-11T05:17:32.412Z,997.3
2022-10-11T05:18:38.743Z,997.3
2022-10-11T05:19:45.084Z,997.3
2022-10-11T05:20:51.419Z,997.3
2022-10-11T05:21:57.748Z,997.3
2022-10-11T05:23:04.083Z,997.3
2022-10-11T05:24:10.402Z,997.4
2022-10-11T05:25:16.752Z,997.4
2022-10-11T05:26:23.076Z,997.4
2022-10-11T05:27:29.417Z,997.4
2022-10-11T05:28:35.840Z,997.4
2022-10-11T05:29:42.106Z,997.4
2022-10-11T05:30:48.458Z,997.4
2022-10-11T05:31:54.756Z,997.4
2022-10-11T05:33:01.169Z,997.5
2022-10-11T05:34:07.400Z,997.5
2022-10-11T05:35:13.738Z,997.5
2022-10-11T05:36:20.095Z,997.5
2022-10-11T05:37:26.399Z,997.5
2022-10-11T05:38:32.730Z,997.5
2022-10-11T05:39:39.133Z,997.5
2022-10-11T05:40:45.703Z,997.6
2022-10-11T05:41:52.031Z,997.6
2022-10-11T05:42:58.363Z,997.6
2022-10-11T05:44:04.681Z,997.6
2022-10-11T05:45:11.046Z,997.6
2022-10-11T05:46:17.347Z,997.6
2022-10-11T05:47:23.678Z,997.7
2022-10-11T05:48:30.012Z,997.7
2022-10-11T05:49:36.353Z,997.7
2022-10-11T05:50:42.688Z,997.7
2022-10-11T05:51:49.015Z,997.8
2022-10-11T05:52:55.341Z,997.8
2022-10-11T05:54:01.668Z,997.8
2022-10-11T05:55:08.012Z,997.9
2022-10-11T05:56:14.341Z,997.9
2022-10-11T05:57:20.682Z,997.9
2022-10-11T05:58:27.006Z,997.9
2022-10-11T05:59:33.325Z,997.9
2022-10-11T06:00:39.976Z,997.9
2022-10-11T06:01:46.069Z,998
2022-10-11T06:02:52.335Z,998
2022-10-11T06:03:58.679Z,998
2022-10-11T06:05:05.015Z,998
2022-10-11T06:06:11.338Z,998
2022-10-11T06:07:17.677Z,998.1
2022-10-11T06:08:23.997Z,998.1
2022-10-11T06:09:30.342Z,998.1
2022-10-11T06:10:36.660Z,998.1
2022-10-11T06:11:43.008Z,998.1
2022-10-11T06:12:49.639Z,998.1
2022-10-11T06:13:56.038Z,998.1
2022-10-11T06:15:02.288Z,998.1
2022-10-11T06:17:15.121Z,998.1
2022-10-11T06:18:21.316Z,998.1
2022-10-11T06:19:27.636Z,998.2
2022-10-11T06:20:33.986Z,998.2
2022-10-11T06:21:40.298Z,998.2
2022-10-11T06:22:46.632Z,998.2
2022-10-11T06:23:55.709Z,998.2
2022-10-11T06:24:59.297Z,998.2
2022-10-11T06:27:11.951Z,998.2
2022-10-11T06:28:18.328Z,998.2
2022-10-11T06:30:30.960Z,998.2
2022-10-11T06:31:46.527Z,998.2
2022-10-11T06:33:04.750Z,998.3
2022-10-11T06:34:18.605Z,998.3
2022-10-11T06:35:33.815Z,998.3
2022-10-11T06:36:49.417Z,998.3
2022-10-11T06:38:14.234Z,998.3
2022-10-11T06:39:20.693Z,998.3
2022-10-11T06:40:26.971Z,998.3
2022-10-11T06:41:33.237Z,998.3
2022-10-11T06:42:39.594Z,998.3
2022-10-11T06:43:45.912Z,998.3
2022-10-11T06:44:52.236Z,998.4
2022-10-11T06:45:58.568Z,998.4
2022-10-11T06:47:04.888Z,998.4
2022-10-11T06:48:11.362Z,998.4
2022-10-11T06:49:22.296Z,998.4
2022-10-11T06:51:30.592Z,998.4
2022-10-11T06:52:36.896Z,998.5
2022-10-11T06:53:43.230Z,998.5
2022-10-11T06:55:55.894Z,998.5
2022-10-11T06:57:20.722Z,998.5
2022-10-11T06:58:27.051Z,998.5
2022-10-11T06:59:42.660Z,998.5
2022-10-11T07:00:58.296Z,998.5
2022-10-11T07:02:13.832Z,998.5
2022-10-11T07:03:29.452Z,998.6
2022-10-11T07:04:45.375Z,998.6
2022-10-11T07:05:51.710Z,998.6
2022-10-11T07:06:58.049Z,998.6
2022-10-11T07:08:04.371Z,998.6
2022-10-11T07:09:10.722Z,998.7
2022-10-11T07:10:17.042Z,998.7
2022-10-11T07:11:23.382Z,998.7
2022-10-11T07:12:29.704Z,998.7
2022-10-11T07:13:36.041Z,998.7
2022-10-11T07:14:42.407Z,998.7
2022-10-11T07:15:48.707Z,998.7
2022-10-11T07:16:55.043Z,998.7
2022-10-11T07:18:01.382Z,998.7
2022-10-11T07:19:07.797Z,998.7
2022-10-11T07:20:14.061Z,998.7
2022-10-11T07:21:20.368Z,998.7
2022-10-11T07:22:26.700Z,998.8
2022-10-11T07:23:33.038Z,998.8
2022-10-11T07:24:39.370Z,998.8
2022-10-11T07:25:45.702Z,998.8
2022-10-11T07:26:52.038Z,998.8
2022-10-11T07:27:58.364Z,998.8
2022-10-11T07:29:13.954Z,998.8
2022-10-11T07:30:20.270Z,998.8
2022-10-11T07:31:26.620Z,998.8
2022-10-11T07:32:32.952Z,998.8
2022-10-11T07:33:39.288Z,998.8
2022-10-11T07:34:46.177Z,998.8
2022-10-11T07:35:52.514Z,998.9
2022-10-11T07:38:05.090Z,998.9
2022-10-11T07:39:11.448Z,998.9
2022-10-11T07:40:17.782Z,998.9
2022-10-11T07:41:24.181Z,998.9
2022-10-11T07:42:30.498Z,998.9
2022-10-11T07:43:36.837Z,998.9
2022-10-11T07:44:43.169Z,998.9
2022-10-11T07:45:49.532Z,998.9
2022-10-11T07:48:02.163Z,998.9
2022-10-11T07:49:08.485Z,998.9
2022-10-11T07:50:14.888Z,998.9
2022-10-11T07:51:21.191Z,998.9
2022-10-11T07:52:27.494Z,998.9
2022-10-11T07:53:33.822Z,998.9
2022-10-11T07:54:40.158Z,998.9
2022-10-11T07:55:46.512Z,998.9
2022-10-11T07:56:52.814Z,998.9
2022-10-11T07:57:59.148Z,998.9
2022-10-11T08:00:11.863Z,998.9
2022-10-11T08:01:27.502Z,998.9
2022-10-11T08:02:42.969Z,998.9
2022-10-11T08:03:58.579Z,999
2022-10-11T08:05:14.174Z,999
2022-10-11T08:06:29.762Z,999
2022-10-11T08:07:45.338Z,999
2022-10-11T08:09:00.928Z,999
2022-10-11T08:10:16.510Z,999
2022-10-11T08:11:41.344Z,999
2022-10-11T08:13:06.208Z,999
2022-10-11T08:14:31.060Z,999
2022-10-11T08:15:55.869Z,999
2022-10-11T08:17:20.734Z,999
2022-10-11T08:18:27.068Z,999
2022-10-11T08:19:42.641Z,999
2022-10-11T08:20:58.239Z,999
2022-10-11T08:22:13.943Z,999
2022-10-11T08:23:38.870Z,999
2022-10-11T08:24:45.248Z,999
2022-10-11T08:25:51.540Z,999
2022-10-11T08:26:57.885Z,999
2022-10-11T08:28:04.225Z,999
2022-10-11T08:29:10.534Z,999
2022-10-11T08:30:16.879Z,999
2022-10-11T08:31:23.204Z,999.1
2022-10-11T08:32:29.548Z,999.1
2022-10-11T08:33:35.856Z,999.1
2022-10-11T08:34:42.249Z,999.1
2022-10-11T08:35:48.537Z,999.1
2022-10-11T08:36:54.866Z,999.1
2022-10-11T08:38:01.220Z,999.1
2022-10-11T08:39:07.555Z,999.1
2022-10-11T08:40:13.865Z,999.1
2022-10-11T08:41:20.194Z,999.1
2022-10-11T08:42:26.521Z,999.1
2022-10-11T08:43:32.855Z,999.1
2022-10-11T08:45:05.805Z,999.1
2022-10-11T08:45:45.513Z,999.1
2022-10-11T08:47:58.183Z,999.1
2022-10-11T08:49:04.965Z,999.1
2022-10-11T08:50:11.298Z,999.2
2022-10-11T08:51:17.645Z,999.2
2022-10-11T08:52:23.983Z,999.2
2022-10-11T08:53:30.332Z,999.2
2022-10-11T08:54:36.620Z,999.2
2022-10-11T08:55:42.968Z,999.2
2022-10-11T08:56:49.307Z,999.2
2022-10-11T08:57:55.632Z,999.2
2022-10-11T08:59:01.961Z,999.2
2022-10-11T09:00:08.293Z,999.2
2022-10-11T09:01:14.723Z,999.2
2022-10-11T09:03:27.297Z,999.2
2022-10-11T09:04:33.619Z,999.2
2022-10-11T09:05:39.946Z,999.2
2022-10-11T09:06:46.295Z,999.2
2022-10-11T09:07:52.605Z,999.2
2022-10-11T09:08:58.985Z,999.2
2022-10-11T09:11:11.631Z,999.2
2022-10-11T09:12:17.960Z,999.2
2022-10-11T09:13:24.281Z,999.2
2022-10-11T09:14:30.612Z,999.2
2022-10-11T09:15:36.938Z,999.2
2022-10-11T09:16:43.280Z,999.2
2022-10-11T09:17:49.608Z,999.2
2022-10-11T09:20:02.314Z,999.2
2022-10-11T09:21:08.882Z,999.2
2022-10-11T09:22:28.173Z,999.2
2022-10-11T09:23:40.034Z,999.2
2022-10-11T09:24:55.655Z,999.2
2022-10-11T09:26:11.213Z,999.2
2022-10-11T09:27:50.153Z,999.2
2022-10-11T09:28:42.460Z,999.2
2022-10-11T09:32:19.930Z,999.2
2022-10-11T09:33:26.223Z,999.2
2022-10-11T09:34:32.630Z,999.2
2022-10-11T09:35:38.949Z,999.2
2022-10-11T09:36:45.303Z,999.2
2022-10-11T09:37:51.557Z,999.2
2022-10-11T09:41:11.113Z,999.2
2022-10-11T09:42:17.423Z,999.1
2022-10-11T09:44:30.095Z,999.1
2022-10-11T09:46:42.742Z,999.1
2022-10-11T09:47:58.324Z,999.1
2022-10-11T09:49:14.461Z,999.1
2022-10-11T09:50:30.014Z,999.1
2022-10-11T09:51:45.601Z,999.1
2022-10-11T09:53:01.197Z,999.1
2022-10-11T09:54:26.030Z,999.1
2022-10-11T09:55:32.349Z,999.1
2022-10-11T09:56:38.715Z,999.1
2022-10-11T09:57:45.027Z,999.1
2022-10-11T09:58:51.341Z,999.1
2022-10-11T09:59:57.777Z,999.1
2022-10-11T10:01:07.803Z,999.1
2022-10-11T10:02:10.395Z,999.1
2022-10-11T10:04:23.023Z,999.1
2022-10-11T10:05:29.356Z,999.1
2022-10-11T10:06:35.676Z,999.1
2022-10-11T10:07:42.016Z,999.1
2022-10-11T10:08:48.342Z,999.1
2022-10-11T10:09:54.685Z,999.1
2022-10-11T10:11:01.304Z,999.1
2022-10-11T10:12:07.706Z,999.1
2022-10-11T10:13:13.976Z,999.1
2022-10-11T10:15:26.668Z,999.2
2022-10-11T10:16:42.224Z,999.2
2022-10-11T10:17:57.822Z,999.2
2022-10-11T10:19:13.413Z,999.2
2022-10-11T10:20:28.997Z,999.2
2022-10-11T10:21:44.573Z,999.2
2022-10-11T10:23:09.422Z,999.2
2022-10-11T10:24:15.764Z,999.2
2022-10-11T10:25:22.626Z,999.2
2022-10-11T10:26:28.946Z,999.2
2022-10-11T10:27:35.288Z,999.2
2022-10-11T10:28:41.692Z,999.2
2022-10-11T10:29:47.942Z,999.2
2022-10-11T10:30:54.265Z,999.2
2022-10-11T10:32:15.937Z,999.2
2022-10-11T10:33:06.948Z,999.3
2022-10-11T10:34:13.268Z,999.3
2022-10-11T10:35:19.603Z,999.2
2022-10-11T10:36:25.991Z,999.3
2022-10-11T10:37:32.274Z,999.2
2022-10-11T10:38:38.607Z,999.3
2022-10-11T10:39:44.927Z,999.3
2022-10-11T10:40:51.265Z,999.3
2022-10-11T10:41:57.666Z,999.3
2022-10-11T10:43:03.946Z,999.3
2022-10-11T10:44:10.284Z,999.3
2022-10-11T10:45:21.065Z,999.3
2022-10-11T10:46:22.933Z,999.3
2022-10-11T10:47:29.257Z,999.3
2022-10-11T10:49:01.951Z,999.3
2022-10-11T10:49:53.455Z,999.3
2022-10-11T10:50:48.772Z,999.3
2022-10-11T10:51:55.121Z,999.3
2022-10-11T10:53:01.513Z,999.3
2022-10-11T10:54:07.805Z,999.2
2022-10-11T10:55:14.113Z,999.3
2022-10-11T10:56:20.427Z,999.3
2022-10-11T10:58:33.115Z,999.3
2022-10-11T10:59:39.450Z,999.3
2022-10-11T11:00:45.785Z,999.3
2022-10-11T11:01:52.212Z,999.3
2022-10-11T11:02:58.625Z,999.3
2022-10-11T11:04:04.764Z,999.3
2022-10-11T11:05:20.380Z,999.3
2022-10-11T11:06:26.684Z,999.3
2022-10-11T11:07:33.016Z,999.3
2022-10-11T11:08:39.378Z,999.3
2022-10-11T11:09:45.669Z,999.3
2022-10-11T11:10:52.048Z,999.3
2022-10-11T11:11:58.348Z,999.3
2022-10-11T11:14:11.040Z,999.3
2022-10-11T11:15:19.636Z,999.3
2022-10-11T11:16:23.674Z,999.3
2022-10-11T11:17:30.009Z,999.3
2022-10-11T11:18:36.377Z,999.2
2022-10-11T11:19:42.659Z,999.2
2022-10-11T11:20:49.042Z,999.2
2022-10-11T11:21:55.335Z,999.2
2022-10-11T11:23:01.686Z,999.2
2022-10-11T11:24:07.995Z,999.2
2022-10-11T11:25:14.327Z,999.2
2022-10-11T11:26:21.152Z,999.2
2022-10-11T11:27:27.500Z,999.2
2022-10-11T11:28:33.953Z,999.2
2022-10-11T11:29:40.213Z,999.2
2022-10-11T11:30:46.517Z,999.2
2022-10-11T11:31:52.878Z,999.2
2022-10-11T11:32:59.153Z,999.2
2022-10-11T11:34:05.509Z,999.1
2022-10-11T11:35:11.824Z,999.1
2022-10-11T11:37:24.516Z,999.2
2022-10-11T11:38:30.814Z,999.2
2022-10-11T11:39:37.167Z,999.2
2022-10-11T11:40:43.479Z,999.1
2022-10-11T11:41:49.809Z,999.1
2022-10-11T11:42:56.154Z,999.1
2022-10-11T11:44:02.473Z,999.1
2022-10-11T11:46:15.152Z,999.1
2022-10-11T11:47:21.486Z,999.1
2022-10-11T11:48:27.819Z,999.1
2022-10-11T11:49:34.231Z,999.1
2022-10-11T11:50:40.469Z,999.1
2022-10-11T11:51:46.810Z,999.1
2022-10-11T11:52:53.141Z,999.1
2022-10-11T11:53:59.484Z,999.1
2022-10-11T11:55:05.801Z,999.1
2022-10-11T11:56:12.159Z,999.1
2022-10-11T11:57:18.461Z,999.1
2022-10-11T11:58:25.021Z,999.1
2022-10-11T11:59:31.373Z,999.1
2022-10-11T12:00:37.720Z,999.1
2022-10-11T12:01:44.172Z,999.1
2022-10-11T12:02:50.400Z,999.1
2022-10-11T12:03:56.704Z,999.1
2022-10-11T12:05:03.027Z,999.1
2022-10-11T12:06:09.388Z,999.1
2022-10-11T12:07:16.949Z,999
2022-10-11T12:08:22.036Z,999
2022-10-11T12:11:41.039Z,999
2022-10-11T12:12:47.346Z,999
2022-10-11T12:15:00.012Z,999
2022-10-11T12:16:15.588Z,999
2022-10-11T12:17:31.253Z,999
2022-10-11T12:18:46.791Z,999
2022-10-11T12:20:02.389Z,999
2022-10-11T12:21:17.952Z,999
2022-10-11T12:22:33.557Z,999
2022-10-11T12:23:49.148Z,999
2022-10-11T12:24:55.502Z,999
2022-10-11T12:26:01.801Z,999
2022-10-11T12:27:08.170Z,999
2022-10-11T12:28:14.508Z,998.9
2022-10-11T12:29:24.634Z,998.9
2022-10-11T12:30:27.192Z,998.9
2022-10-11T12:31:33.471Z,998.9
2022-10-11T12:32:39.820Z,998.9
2022-10-11T12:33:46.148Z,998.9
2022-10-11T12:34:52.448Z,998.9
2022-10-11T12:36:00.365Z,998.9
2022-10-11T12:37:06.752Z,998.9
2022-10-11T12:38:11.439Z,998.9
2022-10-11T12:39:17.788Z,998.9
2022-10-11T12:40:24.111Z,998.9
2022-10-11T12:41:30.448Z,998.9
2022-10-11T12:42:36.797Z,998.9
2022-10-11T12:43:43.121Z,998.9
2022-10-11T12:44:49.456Z,998.9
2022-10-11T12:45:55.775Z,998.9
2022-10-11T12:47:02.300Z,998.9
2022-10-11T12:48:08.472Z,998.9
2022-10-11T12:49:14.778Z,998.9
2022-10-11T12:50:21.107Z,998.9
2022-10-11T12:51:27.434Z,998.9
2022-10-11T12:52:33.770Z,998.9
2022-10-11T12:53:40.137Z,998.9
2022-10-11T12:54:46.448Z,998.9
2022-10-11T12:56:59.109Z,998.9
2022-10-11T12:58:05.443Z,998.9
2022-10-11T13:00:18.096Z,998.9
2022-10-11T13:02:30.793Z,998.8
2022-10-11T13:03:46.377Z,998.8
2022-10-11T13:05:01.944Z,998.8
2022-10-11T13:06:17.529Z,998.8
2022-10-11T13:07:42.384Z,998.8
2022-10-11T13:08:48.701Z,998.8
2022-10-11T13:10:04.303Z,998.8
2022-10-11T13:11:29.138Z,998.8
2022-10-11T13:12:35.471Z,998.8
2022-10-11T13:13:41.801Z,998.8
2022-10-11T13:14:48.127Z,998.8
2022-10-11T13:15:54.456Z,998.8
2022-10-11T13:17:00.782Z,998.8
2022-10-11T13:18:07.125Z,998.9
2022-10-11T13:19:13.484Z,998.9
2022-10-11T13:20:19.778Z,998.9
2022-10-11T13:21:26.142Z,998.9
2022-10-11T13:22:32.449Z,998.9
2022-10-11T13:23:38.775Z,998.9
2022-10-11T13:24:45.129Z,998.9
2022-10-11T13:25:51.461Z,998.9
2022-10-11T13:26:57.780Z,998.9
2022-10-11T13:28:04.104Z,998.8
2022-10-11T13:29:10.465Z,998.8
2022-10-11T13:30:16.842Z,998.8
2022-10-11T13:31:23.114Z,998.9
2022-10-11T13:32:29.442Z,998.9
2022-10-11T13:33:35.785Z,998.9
2022-10-11T13:34:42.183Z,998.9
2022-10-11T13:35:48.442Z,998.9
2022-10-11T13:36:54.765Z,998.9
2022-10-11T13:38:01.129Z,998.9
2022-10-11T13:39:07.442Z,998.9
2022-10-11T13:40:13.813Z,998.9
2022-10-11T13:41:20.094Z,998.9
2022-10-11T13:42:26.480Z,998.9
2022-10-11T13:43:32.757Z,998.9
2022-10-11T13:44:39.102Z,998.9
2022-10-11T13:45:45.430Z,998.9
2022-10-11T13:46:51.766Z,998.9
2022-10-11T13:47:58.106Z,998.8
2022-10-11T13:49:04.432Z,998.8
2022-10-11T13:50:10.785Z,998.8
2022-10-11T13:51:17.104Z,998.8
2022-10-11T13:52:23.429Z,998.8
2022-10-11T13:53:29.773Z,998.8
2022-10-11T13:54:36.105Z,998.8
2022-10-11T13:55:42.416Z,998.8
2022-10-11T13:56:48.751Z,998.8
2022-10-11T13:57:55.091Z,998.8
2022-10-11T13:59:01.410Z,998.8
2022-10-11T14:00:07.756Z,998.8
2022-10-11T14:01:14.150Z,998.8
2022-10-11T14:02:20.427Z,998.8
2022-10-11T14:03:26.752Z,998.8
2022-10-11T14:04:33.089Z,998.7
2022-10-11T14:05:39.715Z,998.8
2022-10-11T14:06:46.019Z,998.8
2022-10-11T14:07:52.351Z,998.8
2022-10-11T14:08:58.691Z,998.8
2022-10-11T14:10:05.076Z,998.8
2022-10-11T14:11:11.361Z,998.8
2022-10-11T14:12:17.679Z,998.8
2022-10-11T14:13:24.017Z,998.8
2022-10-11T14:14:30.339Z,998.8
2022-10-11T14:15:36.689Z,998.8
2022-10-11T14:16:43.011Z,998.8
2022-10-11T14:17:49.349Z,998.8
2022-10-11T14:18:55.679Z,998.8
2022-10-11T14:20:06.133Z,998.8
2022-10-11T14:21:08.529Z,998.8
2022-10-11T14:22:14.658Z,998.8
2022-10-11T14:23:21.032Z,998.8
2022-10-11T14:24:27.353Z,998.7
2022-10-11T14:25:33.680Z,998.7
2022-10-11T14:26:40.014Z,998.7
2022-10-11T14:27:46.397Z,998.7
2022-10-11T14:28:52.705Z,998.7
2022-10-11T14:30:24.896Z,998.7
2022-10-11T14:32:11.677Z,998.7
2022-10-11T14:33:17.999Z,998.7
2022-10-11T14:34:24.327Z,998.8
2022-10-11T14:35:30.693Z,998.8
2022-10-11T14:36:37.043Z,998.8
2022-10-11T14:37:43.633Z,998.8
2022-10-11T14:38:49.945Z,998.8
2022-10-11T14:39:56.294Z,998.8
2022-10-11T14:41:02.642Z,998.8
2022-10-11T14:42:08.983Z,998.8
2022-10-11T14:43:15.311Z,998.8
2022-10-11T14:44:30.878Z,998.8
2022-10-11T14:45:46.470Z,998.8
2022-10-11T14:46:54.640Z,998.8
2022-10-11T14:47:59.652Z,998.8
2022-10-11T14:49:05.984Z,998.8
2022-10-11T14:50:12.320Z,998.8
2022-10-11T14:51:18.650Z,998.8
2022-10-11T14:52:25.030Z,998.8
2022-10-11T14:53:31.349Z,998.8
2022-10-11T14:54:37.760Z,998.8
2022-10-11T14:55:43.997Z,998.8
2022-10-11T14:56:50.331Z,998.8
2022-10-11T14:57:56.653Z,998.8
2022-10-11T14:59:02.998Z,998.8
2022-10-11T15:00:09.336Z,998.8
2022-10-11T15:01:15.805Z,998.8
2022-10-11T15:02:22.426Z,998.8
2022-10-11T15:03:28.303Z,998.8
2022-10-11T15:04:34.653Z,998.8
2022-10-11T15:05:40.970Z,998.8
2022-10-11T15:06:47.316Z,998.8
2022-10-11T15:07:53.668Z,998.8
2022-10-11T15:08:59.966Z,998.8
2022-10-11T15:10:06.309Z,998.8
2022-10-11T15:11:12.640Z,998.8
2022-10-11T15:12:18.997Z,998.8
2022-10-11T15:13:25.307Z,998.8
2022-10-11T15:14:31.634Z,998.8
2022-10-11T15:15:37.973Z,998.8
2022-10-11T15:16:44.293Z,998.8
2022-10-11T15:17:50.857Z,998.8
2022-10-11T15:18:57.270Z,998.8
2022-10-11T15:21:09.925Z,998.8
2022-10-11T15:22:16.260Z,998.8
2022-10-11T15:23:22.616Z,998.8
2022-10-11T15:24:29.008Z,998.8
2022-10-11T15:25:35.266Z,998.8
2022-10-11T15:26:41.589Z,998.8
2022-10-11T15:27:47.924Z,998.8
2022-10-11T15:28:54.346Z,998.8